sensor_id;sensor_type;location;lat;lon;timestamp;pressure;altitude;pressure_sealevel;temperature;humidity
44751;BME280;30477;48.224;11.470;2022-11-20T00:00:42;95477.53;;;5.79;75.73
44751;BME280;30477;48.224;11.470;2022-11-20T00:03:08;95481.53;;;5.72;75.42
44751;BME280;30477;48.224;11.470;2022-11-20T00:05:33;95484.41;;;5.79;75.66
44751;BME280;30477;48.224;11.470;2022-11-20T00:07:58;95493.28;;;5.86;75.66
44751;BME280;30477;48.224;11.470;2022-11-20T00:10:24;95490.44;;;5.89;75.69
44751;BME280;30477;48.224;11.470;2022-11-20T00:12:49;95487.75;;;5.90;75.76
44751;BME280;30477;48.224;11.470;2022-11-20T00:15:14;95494.16;;;5.96;75.56
44751;BME280;30477;48.224;11.470;2022-11-20T00:17:40;95495.31;;;5.92;75.39
44751;BME280;30477;48.224;11.470;2022-11-20T00:20:05;95485.72;;;5.94;75.17
44751;BME280;30477;48.224;11.470;2022-11-20T00:22:31;95496.53;;;5.88;75.22
44751;BME280;30477;48.224;11.470;2022-11-20T00:24:56;95505.44;;;5.84;75.29
44751;BME280;30477;48.224;11.470;2022-11-20T00:27:22;95495.38;;;5.81;75.34
44751;BME280;30477;48.224;11.470;2022-11-20T00:29:48;95505.34;;;5.74;75.20
44751;BME280;30477;48.224;11.470;2022-11-20T00:32:13;95498.72;;;5.72;76.00
44751;BME280;30477;48.224;11.470;2022-11-20T00:34:38;95491.19;;;5.80;75.85
44751;BME280;30477;48.224;11.470;2022-11-20T00:37:06;95498.25;;;5.87;75.71
44751;BME280;30477;48.224;11.470;2022-11-20T00:39:31;95498.41;;;5.86;75.52
44751;BME280;30477;48.224;11.470;2022-11-20T00:41:57;95499.78;;;5.90;75.66
44751;BME280;30477;48.224;11.470;2022-11-20T00:44:22;95497.06;;;5.92;75.61
44751;BME280;30477;48.224;11.470;2022-11-20T00:46:47;95501.28;;;5.93;75.31
44751;BME280;30477;48.224;11.470;2022-11-20T00:49:13;95500.97;;;5.86;75.45
44751;BME280;30477;48.224;11.470;2022-11-20T00:51:39;95504.47;;;5.85;75.30
44751;BME280;30477;48.224;11.470;2022-11-20T00:54:04;95507.03;;;5.85;75.30
44751;BME280;30477;48.224;11.470;2022-11-20T00:56:30;95501.41;;;5.91;75.44
44751;BME280;30477;48.224;11.470;2022-11-20T00:58:58;95507.16;;;5.95;75.21
44751;BME280;30477;48.224;11.470;2022-11-20T01:01:27;95505.28;;;5.97;75.05
44751;BME280;30477;48.224;11.470;2022-11-20T01:03:57;95511.41;;;5.94;74.98
44751;BME280;30477;48.224;11.470;2022-11-20T01:06:26;95525.22;;;5.93;74.94
44751;BME280;30477;48.224;11.470;2022-11-20T01:08:54;95513.91;;;5.96;74.92
44751;BME280;30477;48.224;11.470;2022-11-20T01:14:17;95520.94;;;5.82;74.81
44751;BME280;30477;48.224;11.470;2022-11-20T01:16:46;95522.34;;;5.86;74.62
44751;BME280;30477;48.224;11.470;2022-11-20T01:19:15;95522.44;;;5.85;74.42
44751;BME280;30477;48.224;11.470;2022-11-20T01:21:43;95523.94;;;5.87;74.06
44751;BME280;30477;48.224;11.470;2022-11-20T01:24:12;95528.38;;;5.85;74.41
44751;BME280;30477;48.224;11.470;2022-11-20T01:26:39;95532.28;;;5.80;74.38
44751;BME280;30477;48.224;11.470;2022-11-20T01:29:16;95530.84;;;5.87;74.46
44751;BME280;30477;48.224;11.470;2022-11-20T01:31:45;95531.34;;;5.81;74.50
44751;BME280;30477;48.224;11.470;2022-11-20T01:34:17;95521.06;;;5.81;74.46
44751;BME280;30477;48.224;11.470;2022-11-20T01:36:43;95529.47;;;5.83;74.30
44751;BME280;30477;48.224;11.470;2022-11-20T01:39:18;95524.91;;;5.86;74.25
44751;BME280;30477;48.224;11.470;2022-11-20T01:41:45;95522.44;;;5.85;74.31
44751;BME280;30477;48.224;11.470;2022-11-20T01:44:49;95521.75;;;5.83;74.38
44751;BME280;30477;48.224;11.470;2022-11-20T01:47:43;95523.94;;;5.87;74.36
44751;BME280;30477;48.224;11.470;2022-11-20T01:50:11;95532.72;;;5.85;73.86
44751;BME280;30477;48.224;11.470;2022-11-20T01:52:46;95531.34;;;5.81;73.96
44751;BME280;30477;48.224;11.470;2022-11-20T01:55:18;95526.66;;;5.86;74.24
44751;BME280;30477;48.224;11.470;2022-11-20T01:57:45;95528.97;;;5.89;74.10
44751;BME280;30477;48.224;11.470;2022-11-20T02:00:14;95532.34;;;5.89;73.76
44751;BME280;30477;48.224;11.470;2022-11-20T02:02:43;95531.91;;;5.84;74.22
44751;BME280;30477;48.224;11.470;2022-11-20T02:05:35;95532.22;;;5.91;74.13
44751;BME280;30477;48.224;11.470;2022-11-20T02:08:03;95534.09;;;5.89;73.88
44751;BME280;30477;48.224;11.470;2022-11-20T02:10:30;95537.16;;;5.83;73.79
44751;BME280;30477;48.224;11.470;2022-11-20T02:12:55;95531.66;;;5.87;73.83
44751;BME280;30477;48.224;11.470;2022-11-20T02:15:40;95536.25;;;5.84;73.95
44751;BME280;30477;48.224;11.470;2022-11-20T02:18:06;95544.63;;;5.86;73.84
44751;BME280;30477;48.224;11.470;2022-11-20T02:20:32;95541.38;;;5.84;73.83
44751;BME280;30477;48.224;11.470;2022-11-20T02:23:19;95535.97;;;5.87;73.92
44751;BME280;30477;48.224;11.470;2022-11-20T02:25:50;95542.75;;;5.88;73.82
44751;BME280;30477;48.224;11.470;2022-11-20T02:28:21;95541.53;;;5.92;73.66
44751;BME280;30477;48.224;11.470;2022-11-20T02:30:47;95541.38;;;5.84;73.54
44751;BME280;30477;48.224;11.470;2022-11-20T02:33:12;95540.81;;;5.80;73.65
44751;BME280;30477;48.224;11.470;2022-11-20T02:35:43;95536.72;;;5.78;73.94
44751;BME280;30477;48.224;11.470;2022-11-20T02:38:13;95536.72;;;5.78;73.96
44751;BME280;30477;48.224;11.470;2022-11-20T02:40:39;95540.09;;;5.78;73.79
44751;BME280;30477;48.224;11.470;2022-11-20T02:43:04;95535.09;;;5.77;73.96
44751;BME280;30477;48.224;11.470;2022-11-20T02:45:30;95532.31;;;5.68;73.63
44751;BME280;30477;48.224;11.470;2022-11-20T02:47:56;95537.44;;;5.68;73.97
44751;BME280;30477;48.224;11.470;2022-11-20T02:50:22;95524.19;;;5.63;73.98
44751;BME280;30477;48.224;11.470;2022-11-20T02:52:47;95530.94;;;5.64;74.14
44751;BME280;30477;48.224;11.470;2022-11-20T02:55:12;95527.19;;;5.68;74.16
44751;BME280;30477;48.224;11.470;2022-11-20T02:57:38;95528.84;;;5.69;74.09
44751;BME280;30477;48.224;11.470;2022-11-20T03:00:04;95529.31;;;5.63;74.14
44751;BME280;30477;48.224;11.470;2022-11-20T03:02:30;95529.22;;;5.65;74.16
44751;BME280;30477;48.224;11.470;2022-11-20T03:04:55;95528.75;;;5.60;74.09
44751;BME280;30477;48.224;11.470;2022-11-20T03:07:21;95526.06;;;5.61;74.21
44751;BME280;30477;48.224;11.470;2022-11-20T03:09:46;95523.03;;;5.56;74.34
44751;BME280;30477;48.224;11.470;2022-11-20T03:12:12;95526.78;;;5.52;73.98
44751;BME280;30477;48.224;11.470;2022-11-20T03:14:37;95527.13;;;5.59;74.33
44751;BME280;30477;48.224;11.470;2022-11-20T03:17:03;95524.31;;;5.62;74.20
44751;BME280;30477;48.224;11.470;2022-11-20T03:19:28;95523.13;;;5.66;73.90
44751;BME280;30477;48.224;11.470;2022-11-20T03:21:59;95522.06;;;5.68;73.71
44751;BME280;30477;48.224;11.470;2022-11-20T03:24:25;95520.19;;;5.70;73.79
44751;BME280;30477;48.224;11.470;2022-11-20T03:26:51;95521.81;;;5.72;73.42
44751;BME280;30477;48.224;11.470;2022-11-20T03:29:16;95518.88;;;5.76;73.48
44751;BME280;30477;48.224;11.470;2022-11-20T03:31:42;95524.13;;;5.75;73.30
44751;BME280;30477;48.224;11.470;2022-11-20T03:34:09;95513.44;;;5.69;73.09
44751;BME280;30477;48.224;11.470;2022-11-20T03:36:39;95526.13;;;5.71;72.84
44751;BME280;30477;48.224;11.470;2022-11-20T03:39:04;95523.69;;;5.69;72.82
44751;BME280;30477;48.224;11.470;2022-11-20T03:41:31;95519.94;;;5.74;72.90
44751;BME280;30477;48.224;11.470;2022-11-20T03:44:04;95528.34;;;5.76;72.70
44751;BME280;30477;48.224;11.470;2022-11-20T03:46:30;95522.03;;;5.80;72.60
44751;BME280;30477;48.224;11.470;2022-11-20T03:48:56;95521.81;;;5.72;72.35
44751;BME280;30477;48.224;11.470;2022-11-20T03:51:26;95527.75;;;5.72;72.46
44751;BME280;30477;48.224;11.470;2022-11-20T03:53:54;95525.06;;;5.74;72.27
44751;BME280;30477;48.224;11.470;2022-11-20T03:56:23;95523.69;;;5.69;72.29
44751;BME280;30477;48.224;11.470;2022-11-20T03:58:49;95526.38;;;5.68;72.07
44751;BME280;30477;48.224;11.470;2022-11-20T04:01:18;95529.75;;;5.68;71.92
44751;BME280;30477;48.224;11.470;2022-11-20T04:03:45;95526.75;;;5.63;71.75
44751;BME280;30477;48.224;11.470;2022-11-20T04:06:14;95533.78;;;5.50;71.64
44751;BME280;30477;48.224;11.470;2022-11-20T04:08:43;95524.91;;;5.54;72.28
44751;BME280;30477;48.224;11.470;2022-11-20T04:13:37;95530.38;;;5.61;72.17
44751;BME280;30477;48.224;11.470;2022-11-20T04:16:04;95537.94;;;5.62;71.89
44751;BME280;30477;48.224;11.470;2022-11-20T04:18:30;95527.63;;;5.53;71.99
44751;BME280;30477;48.224;11.470;2022-11-20T04:20:57;95525.16;;;5.51;71.93
44751;BME280;30477;48.224;11.470;2022-11-20T04:23:22;95526.28;;;5.58;71.93
44751;BME280;30477;48.224;11.470;2022-11-20T04:25:47;95524.66;;;5.57;71.97
44751;BME280;30477;48.224;11.470;2022-11-20T04:28:13;95517.47;;;5.51;71.86
44751;BME280;30477;48.224;11.470;2022-11-20T04:30:38;95535.16;;;5.54;72.06
44751;BME280;30477;48.224;11.470;2022-11-20T04:33:03;95527.63;;;5.53;71.92
44751;BME280;30477;48.224;11.470;2022-11-20T04:35:35;95532.84;;;5.51;72.13
44751;BME280;30477;48.224;11.470;2022-11-20T04:38:01;95527.94;;;5.59;72.09
44751;BME280;30477;48.224;11.470;2022-11-20T04:40:27;95531.34;;;5.48;72.06
44751;BME280;30477;48.224;11.470;2022-11-20T04:42:54;95528.16;;;5.56;72.14
44751;BME280;30477;48.224;11.470;2022-11-20T04:45:19;95524.91;;;5.54;72.22
44751;BME280;30477;48.224;11.470;2022-11-20T04:47:44;95538.44;;;5.56;72.30
44751;BME280;30477;48.224;11.470;2022-11-20T04:50:10;95534.69;;;5.60;72.17
44751;BME280;30477;48.224;11.470;2022-11-20T04:52:35;95533.50;;;5.64;72.23
44751;BME280;30477;48.224;11.470;2022-11-20T04:55:01;95536.31;;;5.61;72.27
44751;BME280;30477;48.224;11.470;2022-11-20T04:57:26;95531.19;;;5.61;72.18
44751;BME280;30477;48.224;11.470;2022-11-20T04:59:51;95534.69;;;5.60;71.86
44751;BME280;30477;48.224;11.470;2022-11-20T05:02:16;95531.19;;;5.61;72.08
44751;BME280;30477;48.224;11.470;2022-11-20T05:04:42;95525.94;;;5.63;72.00
44751;BME280;30477;48.224;11.470;2022-11-20T05:07:07;95524.31;;;5.62;71.92
44751;BME280;30477;48.224;11.470;2022-11-20T05:09:33;95528.75;;;5.60;71.60
44751;BME280;30477;48.224;11.470;2022-11-20T05:11:58;95526.75;;;5.63;71.96
44751;BME280;30477;48.224;11.470;2022-11-20T05:14:23;95536.06;;;5.64;71.83
44751;BME280;30477;48.224;11.470;2022-11-20T05:16:49;95526.63;;;5.65;71.72
44751;BME280;30477;48.224;11.470;2022-11-20T05:19:14;95526.63;;;5.65;71.64
44751;BME280;30477;48.224;11.470;2022-11-20T05:21:39;95532.00;;;5.62;71.72
44751;BME280;30477;48.224;11.470;2022-11-20T05:24:05;95525.09;;;5.62;71.74
44751;BME280;30477;48.224;11.470;2022-11-20T05:26:30;95524.88;;;5.65;71.63
44751;BME280;30477;48.224;11.470;2022-11-20T05:28:56;95530.63;;;5.58;71.45
44751;BME280;30477;48.224;11.470;2022-11-20T05:31:23;95528.63;;;5.61;71.58
44751;BME280;30477;48.224;11.470;2022-11-20T05:33:48;95533.50;;;5.64;71.27
44751;BME280;30477;48.224;11.470;2022-11-20T05:36:14;95535.53;;;5.61;71.28
44751;BME280;30477;48.224;11.470;2022-11-20T05:38:40;95524.66;;;5.57;71.24
44751;BME280;30477;48.224;11.470;2022-11-20T05:41:18;95531.88;;;5.63;71.21
44751;BME280;30477;48.224;11.470;2022-11-20T05:43:45;95530.25;;;5.62;71.33
44751;BME280;30477;48.224;11.470;2022-11-20T05:46:12;95526.06;;;5.61;71.01
44751;BME280;30477;48.224;11.470;2022-11-20T05:48:40;95527.47;;;5.54;70.94
44751;BME280;30477;48.224;11.470;2022-11-20T05:51:08;95530.03;;;5.54;71.06
44751;BME280;30477;48.224;11.470;2022-11-20T05:53:35;95530.28;;;5.51;70.89
44751;BME280;30477;48.224;11.470;2022-11-20T05:56:02;95525.16;;;5.51;70.77
44751;BME280;30477;48.224;11.470;2022-11-20T05:58:28;95521.91;;;5.49;70.78
44751;BME280;30477;48.224;11.470;2022-11-20T06:00:54;95516.19;;;5.45;70.83
44751;BME280;30477;48.224;11.470;2022-11-20T06:03:20;95523.78;;;5.47;70.79
44751;BME280;30477;48.224;11.470;2022-11-20T06:05:46;95530.34;;;5.40;70.85
44751;BME280;30477;48.224;11.470;2022-11-20T06:08:12;95532.66;;;5.43;70.66
44751;BME280;30477;48.224;11.470;2022-11-20T06:10:37;95527.28;;;5.46;70.59
44751;BME280;30477;48.224;11.470;2022-11-20T06:13:02;95536.38;;;5.39;70.46
44751;BME280;30477;48.224;11.470;2022-11-20T06:15:28;95535.13;;;5.33;70.46
44751;BME280;30477;48.224;11.470;2022-11-20T06:17:54;95532.69;;;5.32;70.39
44751;BME280;30477;48.224;11.470;2022-11-20T06:20:20;95539.56;;;5.31;70.35
44751;BME280;30477;48.224;11.470;2022-11-20T06:22:46;95528.72;;;5.27;70.50
44751;BME280;30477;48.224;11.470;2022-11-20T06:25:11;95535.03;;;5.23;70.42
44751;BME280;30477;48.224;11.470;2022-11-20T06:27:37;95539.47;;;5.21;70.40
44751;BME280;30477;48.224;11.470;2022-11-20T06:30:03;95538.66;;;5.21;70.19
44751;BME280;30477;48.224;11.470;2022-11-20T06:32:29;95539.47;;;5.21;70.14
44751;BME280;30477;48.224;11.470;2022-11-20T06:34:55;95537.59;;;5.23;70.37
44751;BME280;30477;48.224;11.470;2022-11-20T06:37:20;95552.31;;;5.21;70.29
44751;BME280;30477;48.224;11.470;2022-11-20T06:39:45;95541.09;;;5.22;70.01
44751;BME280;30477;48.224;11.470;2022-11-20T06:42:11;95540.41;;;5.20;69.97
44751;BME280;30477;48.224;11.470;2022-11-20T06:44:36;95537.81;;;5.20;69.84
44751;BME280;30477;48.224;11.470;2022-11-20T06:47:01;95551.34;;;5.22;69.67
44751;BME280;30477;48.224;11.470;2022-11-20T06:49:27;95559.75;;;5.24;69.79
44751;BME280;30477;48.224;11.470;2022-11-20T06:51:52;95565.09;;;5.33;69.84
44751;BME280;30477;48.224;11.470;2022-11-20T06:54:17;95557.97;;;5.36;69.63
44751;BME280;30477;48.224;11.470;2022-11-20T06:56:47;95570.94;;;5.35;69.44
44751;BME280;30477;48.224;11.470;2022-11-20T06:59:13;95567.91;;;5.29;69.31
44751;BME280;30477;48.224;11.470;2022-11-20T07:01:38;95567.66;;;5.33;69.29
44751;BME280;30477;48.224;11.470;2022-11-20T07:04:04;95564.72;;;5.37;69.15
44751;BME280;30477;48.224;11.470;2022-11-20T07:06:29;95576.75;;;5.37;69.08
44751;BME280;30477;48.224;11.470;2022-11-20T07:08:55;95574.53;;;5.43;69.13
44751;BME280;30477;48.224;11.470;2022-11-20T07:11:22;95576.97;;;5.45;69.02
44751;BME280;30477;48.224;11.470;2022-11-20T07:13:47;95567.50;;;5.45;68.98
44751;BME280;30477;48.224;11.470;2022-11-20T07:16:12;95570.66;;;5.49;68.78
44751;BME280;30477;48.224;11.470;2022-11-20T07:18:38;95576.72;;;5.48;68.76
44751;BME280;30477;48.224;11.470;2022-11-20T07:21:06;95573.34;;;5.47;68.65
44751;BME280;30477;48.224;11.470;2022-11-20T07:23:32;95575.09;;;5.47;68.40
44751;BME280;30477;48.224;11.470;2022-11-20T07:25:57;95576.97;;;5.45;68.32
44751;BME280;30477;48.224;11.470;2022-11-20T07:28:23;95574.84;;;5.50;68.40
44751;BME280;30477;48.224;11.470;2022-11-20T07:30:53;95581.84;;;5.48;68.24
44751;BME280;30477;48.224;11.470;2022-11-20T07:33:20;95581.38;;;5.54;68.57
44751;BME280;30477;48.224;11.470;2022-11-20T07:35:46;95572.97;;;5.52;68.30
44751;BME280;30477;48.224;11.470;2022-11-20T07:38:12;95578.69;;;5.56;68.36
44751;BME280;30477;48.224;11.470;2022-11-20T07:40:37;95574.72;;;5.63;68.35
44751;BME280;30477;48.224;11.470;2022-11-20T07:43:02;95573.88;;;5.62;68.24
44751;BME280;30477;48.224;11.470;2022-11-20T07:45:28;95576.44;;;5.62;68.26
44751;BME280;30477;48.224;11.470;2022-11-20T07:47:53;95577.16;;;5.64;68.47
44751;BME280;30477;48.224;11.470;2022-11-20T07:50:19;95575.66;;;5.62;68.30
44751;BME280;30477;48.224;11.470;2022-11-20T07:52:45;95581.03;;;5.59;68.40
44751;BME280;30477;48.224;11.470;2022-11-20T07:55:10;95583.34;;;5.62;68.41
44751;BME280;30477;48.224;11.470;2022-11-20T07:57:36;95583.66;;;5.68;68.47
44751;BME280;30477;48.224;11.470;2022-11-20T08:00:03;95588.56;;;5.72;68.52
44751;BME280;30477;48.224;11.470;2022-11-20T08:02:29;95588.56;;;5.72;68.38
44751;BME280;30477;48.224;11.470;2022-11-20T08:04:55;95591.59;;;5.77;68.28
44751;BME280;30477;48.224;11.470;2022-11-20T08:07:21;95591.22;;;5.81;68.35
44751;BME280;30477;48.224;11.470;2022-11-20T08:09:46;95585.63;;;5.76;68.35
44751;BME280;30477;48.224;11.470;2022-11-20T08:12:19;95597.53;;;5.77;68.26
44751;BME280;30477;48.224;11.470;2022-11-20T08:15:04;95592.28;;;5.79;68.19
44751;BME280;30477;48.224;11.470;2022-11-20T08:17:30;95591.09;;;5.83;68.27
44751;BME280;30477;48.224;11.470;2022-11-20T08:19:55;95602.31;;;5.82;68.07
44751;BME280;30477;48.224;11.470;2022-11-20T08:22:22;95584.34;;;5.82;68.21
44751;BME280;30477;48.224;11.470;2022-11-20T08:24:48;95593.22;;;5.78;68.18
44751;BME280;30477;48.224;11.470;2022-11-20T08:27:13;95585.25;;;5.81;68.02
44751;BME280;30477;48.224;11.470;2022-11-20T08:29:39;95593.56;;;5.84;68.17
44751;BME280;30477;48.224;11.470;2022-11-20T08:32:04;95596.94;;;5.85;67.99
44751;BME280;30477;48.224;11.470;2022-11-20T08:34:29;95589.00;;;5.88;68.04
44751;BME280;30477;48.224;11.470;2022-11-20T08:36:55;95590.03;;;5.85;67.73
44751;BME280;30477;48.224;11.470;2022-11-20T08:39:20;95595.75;;;5.89;68.07
44751;BME280;30477;48.224;11.470;2022-11-20T08:41:45;95591.03;;;5.94;68.01
44751;BME280;30477;48.224;11.470;2022-11-20T08:44:11;95585.91;;;5.94;67.68
44751;BME280;30477;48.224;11.470;2022-11-20T08:46:38;95587.59;;;5.95;67.62
44751;BME280;30477;48.224;11.470;2022-11-20T08:49:10;95595.97;;;5.97;67.45
44751;BME280;30477;48.224;11.470;2022-11-20T08:51:36;95597.47;;;6.00;67.33
44751;BME280;30477;48.224;11.470;2022-11-20T08:54:02;95602.94;;;6.06;67.49
44751;BME280;30477;48.224;11.470;2022-11-20T08:56:28;95592.16;;;6.13;67.44
44751;BME280;30477;48.224;11.470;2022-11-20T08:58:53;95599.44;;;6.07;67.27
44751;BME280;30477;48.224;11.470;2022-11-20T09:01:20;95601.06;;;6.08;67.30
44751;BME280;30477;48.224;11.470;2022-11-20T09:03:46;95605.38;;;6.08;67.05
44751;BME280;30477;48.224;11.470;2022-11-20T09:06:11;95599.44;;;6.07;67.20
44751;BME280;30477;48.224;11.470;2022-11-20T09:08:37;95594.03;;;6.10;67.15
44751;BME280;30477;48.224;11.470;2022-11-20T09:11:03;95604.31;;;6.10;67.29
44751;BME280;30477;48.224;11.470;2022-11-20T09:13:30;95592.16;;;6.13;66.94
44751;BME280;30477;48.224;11.470;2022-11-20T09:15:58;95591.78;;;6.17;66.98
44751;BME280;30477;48.224;11.470;2022-11-20T09:18:24;95591.16;;;6.25;66.86
44751;BME280;30477;48.224;11.470;2022-11-20T09:20:51;95591.88;;;6.27;66.89
44751;BME280;30477;48.224;11.470;2022-11-20T09:23:18;95589.75;;;6.32;66.65
44751;BME280;30477;48.224;11.470;2022-11-20T09:25:43;95576.38;;;6.38;66.34
44751;BME280;30477;48.224;11.470;2022-11-20T09:28:09;95585.59;;;6.41;66.17
44751;BME280;30477;48.224;11.470;2022-11-20T09:30:34;95586.47;;;6.51;66.16
44751;BME280;30477;48.224;11.470;2022-11-20T09:33:00;95583.53;;;6.56;65.98
44751;BME280;30477;48.224;11.470;2022-11-20T09:35:25;95581.66;;;6.58;65.89
44751;BME280;30477;48.224;11.470;2022-11-20T09:37:50;95584.34;;;6.56;65.69
44751;BME280;30477;48.224;11.470;2022-11-20T09:40:22;95580.69;;;6.59;65.65
44751;BME280;30477;48.224;11.470;2022-11-20T09:56:23;95564.94;;;6.73;64.74
44751;BME280;30477;48.224;11.470;2022-11-20T09:58:54;95573.44;;;6.74;64.74
44751;BME280;30477;48.224;11.470;2022-11-20T10:01:26;95567.66;;;6.81;64.80
44751;BME280;30477;48.224;11.470;2022-11-20T10:03:58;95562.00;;;6.87;64.58
44751;BME280;30477;48.224;11.470;2022-11-20T10:09:31;95558.31;;;7.11;64.58
44751;BME280;30477;48.224;11.470;2022-11-20T10:20:10;95559.25;;;7.10;64.44
44751;BME280;30477;48.224;11.470;2022-11-20T10:28:18;95560.47;;;7.06;63.83
44751;BME280;30477;48.224;11.470;2022-11-20T10:31:03;95567.50;;;7.04;63.57
44751;BME280;30477;48.224;11.470;2022-11-20T10:33:34;95563.72;;;7.08;63.65
44751;BME280;30477;48.224;11.470;2022-11-20T10:36:18;95561.16;;;7.08;63.54
44751;BME280;30477;48.224;11.470;2022-11-20T10:38:50;95562.50;;;7.12;63.72
44751;BME280;30477;48.224;11.470;2022-11-20T10:41:24;95556.84;;;7.18;63.80
44751;BME280;30477;48.224;11.470;2022-11-20T10:44:03;95557.28;;;7.33;63.82
44751;BME280;30477;48.224;11.470;2022-11-20T10:46:44;95545.38;;;7.42;63.61
44751;BME280;30477;48.224;11.470;2022-11-20T10:49:16;95554.31;;;7.38;63.84
44751;BME280;30477;48.224;11.470;2022-11-20T10:52:11;95544.53;;;7.31;63.04
44751;BME280;30477;48.224;11.470;2022-11-20T11:00:09;95551.16;;;7.24;63.52
44751;BME280;30477;48.224;11.470;2022-11-20T11:02:54;95547.22;;;7.20;63.54
44751;BME280;30477;48.224;11.470;2022-11-20T11:05:27;95546.31;;;7.31;64.00
44751;BME280;30477;48.224;11.470;2022-11-20T11:07:56;95540.78;;;7.55;64.18
44751;BME280;30477;48.224;11.470;2022-11-20T11:10:28;95539.16;;;7.73;63.29
44751;BME280;30477;48.224;11.470;2022-11-20T11:12:57;95543.50;;;7.83;63.04
44751;BME280;30477;48.224;11.470;2022-11-20T11:15:37;95543.50;;;7.73;61.67
44751;BME280;30477;48.224;11.470;2022-11-20T11:18:03;95532.66;;;7.50;61.67
44751;BME280;30477;48.224;11.470;2022-11-20T11:20:28;95536.81;;;7.31;62.03
44751;BME280;30477;48.224;11.470;2022-11-20T11:22:58;95530.03;;;7.30;62.29
44751;BME280;30477;48.224;11.470;2022-11-20T11:25:35;95525.56;;;7.23;62.20
44751;BME280;30477;48.224;11.470;2022-11-20T11:28:03;95514.69;;;7.19;62.38
44751;BME280;30477;48.224;11.470;2022-11-20T11:30:41;95520.94;;;7.17;62.89
44751;BME280;30477;48.224;11.470;2022-11-20T11:33:11;95525.00;;;7.19;63.13
44751;BME280;30477;48.224;11.470;2022-11-20T11:35:45;95519.03;;;7.28;62.98
44751;BME280;30477;48.224;11.470;2022-11-20T11:38:17;95521.22;;;7.23;62.79
44751;BME280;30477;48.224;11.470;2022-11-20T11:40:44;95517.69;;;7.24;62.71
44751;BME280;30477;48.224;11.470;2022-11-20T11:43:24;95513.09;;;7.18;62.54
44751;BME280;30477;48.224;11.470;2022-11-20T11:46:32;95520.53;;;7.21;62.78
44751;BME280;30477;48.224;11.470;2022-11-20T11:49:15;95523.81;;;7.33;62.29
44751;BME280;30477;48.224;11.470;2022-11-20T11:52:00;95514.31;;;7.24;62.22
44751;BME280;30477;48.224;11.470;2022-11-20T11:57:07;95518.50;;;7.15;62.36
44751;BME280;30477;48.224;11.470;2022-11-20T11:59:44;95517.66;;;7.05;62.91
44751;BME280;30477;48.224;11.470;2022-11-20T12:05:32;95526.91;;;6.77;63.85
44751;BME280;30477;48.224;11.470;2022-11-20T12:08:05;95529.03;;;6.62;64.41
44751;BME280;30477;48.224;11.470;2022-11-20T12:15:59;95526.00;;;6.87;65.47
44751;BME280;30477;48.224;11.470;2022-11-20T12:18:25;95523.59;;;6.96;65.25
44751;BME280;30477;48.224;11.470;2022-11-20T12:21:00;95518.84;;;7.01;65.58
44751;BME280;30477;48.224;11.470;2022-11-20T12:26:31;95514.06;;;7.27;65.17
44751;BME280;30477;48.224;11.470;2022-11-20T12:29:27;95518.78;;;7.31;64.58
44751;BME280;30477;48.224;11.470;2022-11-20T12:34:56;95498.13;;;6.93;64.70
44751;BME280;30477;48.224;11.470;2022-11-20T12:37:35;95507.56;;;6.82;65.22
44751;BME280;30477;48.224;11.470;2022-11-20T12:40:28;95513.81;;;6.89;65.47
44751;BME280;30477;48.224;11.470;2022-11-20T12:43:03;95510.28;;;6.90;65.13
44751;BME280;30477;48.224;11.470;2022-11-20T12:51:28;95508.16;;;6.96;64.99
44751;BME280;30477;48.224;11.470;2022-11-20T13:02:37;95509.59;;;6.79;65.48
44751;BME280;30477;48.224;11.470;2022-11-20T13:05:46;95502.41;;;6.82;65.64
44751;BME280;30477;48.224;11.470;2022-11-20T13:08:20;95496.84;;;6.77;65.86
44751;BME280;30477;48.224;11.470;2022-11-20T13:14:00;95503.75;;;6.77;66.10
44751;BME280;30477;48.224;11.470;2022-11-20T13:16:52;95490.63;;;6.70;66.61
44751;BME280;30477;48.224;11.470;2022-11-20T13:19:20;95495.19;;;6.66;66.38
44751;BME280;30477;48.224;11.470;2022-11-20T13:21:47;95492.34;;;6.69;66.44
44751;BME280;30477;48.224;11.470;2022-11-20T13:24:21;95478.00;;;6.67;66.40
44751;BME280;30477;48.224;11.470;2022-11-20T13:29:25;95488.69;;;6.62;66.79
44751;BME280;30477;48.224;11.470;2022-11-20T13:31:51;95484.34;;;6.63;66.73
44751;BME280;30477;48.224;11.470;2022-11-20T13:34:24;95485.03;;;6.65;67.06
44751;BME280;30477;48.224;11.470;2022-11-20T13:36:55;95484.34;;;6.63;67.09
44751;BME280;30477;48.224;11.470;2022-11-20T13:39:33;95477.88;;;6.68;67.35
44751;BME280;30477;48.224;11.470;2022-11-20T13:42:03;95478.81;;;6.67;67.45
44751;BME280;30477;48.224;11.470;2022-11-20T13:45:10;95487.47;;;6.66;67.82
44751;BME280;30477;48.224;11.470;2022-11-20T13:47:37;95479.09;;;6.64;67.90
44751;BME280;30477;48.224;11.470;2022-11-20T13:50:03;95476.91;;;6.60;68.13
44751;BME280;30477;48.224;11.470;2022-11-20T13:55:40;95479.31;;;6.52;68.02
44751;BME280;30477;48.224;11.470;2022-11-20T13:58:36;95477.94;;;6.47;68.18
44751;BME280;30477;48.224;11.470;2022-11-20T14:03:34;95468.06;;;6.53;68.37
44751;BME280;30477;48.224;11.470;2022-11-20T14:06:05;95479.56;;;6.48;68.58
44751;BME280;30477;48.224;11.470;2022-11-20T14:08:42;95478.34;;;6.53;68.45
44751;BME280;30477;48.224;11.470;2022-11-20T14:14:10;95481.38;;;6.58;68.58
44751;BME280;30477;48.224;11.470;2022-11-20T14:16:38;95480.28;;;6.60;68.57
44751;BME280;30477;48.224;11.470;2022-11-20T14:22:47;95486.34;;;6.49;68.63
44751;BME280;30477;48.224;11.470;2022-11-20T14:24:39;95484.88;;;6.57;68.92
44751;BME280;30477;48.224;11.470;2022-11-20T14:27:12;95485.25;;;6.52;68.70
44751;BME280;30477;48.224;11.470;2022-11-20T14:29:38;95482.81;;;6.50;68.82
44751;BME280;30477;48.224;11.470;2022-11-20T14:32:04;95488.91;;;6.49;68.75
44751;BME280;30477;48.224;11.470;2022-11-20T14:34:31;95487.31;;;6.58;69.11
44751;BME280;30477;48.224;11.470;2022-11-20T14:37:00;95486.91;;;6.63;68.72
44751;BME280;30477;48.224;11.470;2022-11-20T14:39:40;95475.84;;;6.62;68.71